Time;durP1;ratioP1;P1;durP2;ratioP2;P2;SDS_P1;SDS_P2;PMS_P1;PMS_P2;Temp;Humidity;BMP_temperature;BMP_pressure;BME280_temperature;BME280_humidity;BME280_pressure;Samples;Min_cycle;Max_cycle;Signal;HPM_P1;HPM_P2
2020/12/11 00:00:59;;;;;;;12.13;8.00;;;;;;;9.15;100.00;95862.69;4967252;28;20050;-62
2020/12/11 00:03:25;;;;;;;12.32;8.55;;;;;;;9.51;100.00;95936.22;4967144;28;20030;-62
2020/12/11 00:05:50;;;;;;;12.70;8.27;;;;;;;9.50;100.00;95937.38;4965363;28;20041;-62
2020/12/11 00:08:15;;;;;;;10.77;7.88;;;;;;;9.63;100.00;95949.66;4946482;28;20086;-62
2020/12/11 00:10:41;;;;;;;11.05;7.88;;;;;;;9.42;100.00;95933.00;4947657;28;20161;-61
2020/12/11 00:13:06;;;;;;;12.13;8.30;;;;;;;9.12;100.00;95911.19;4996850;28;20508;-62
2020/12/11 00:15:32;;;;;;;12.45;7.80;;;;;;;9.39;100.00;95949.59;4967049;28;20038;-62
2020/12/11 00:17:57;;;;;;;10.02;7.38;;;;;;;9.04;100.00;95895.00;4967057;28;20445;-62
2020/12/11 00:20:22;;;;;;;12.73;6.45;;;;;;;7.82;100.00;95713.00;4968247;28;20035;-61
2020/12/11 00:22:48;;;;;;;10.18;6.18;;;;;;;9.32;100.00;95953.13;4968632;28;20046;-62
2020/12/11 00:25:13;;;;;;;8.63;6.35;;;;;;;9.35;100.00;95949.56;4965296;28;20038;-61
2020/12/11 00:27:39;;;;;;;9.00;5.90;;;;;;;9.12;100.00;95899.34;4979982;28;20043;-62
2020/12/11 00:30:05;;;;;;;15.90;9.10;;;;;;;9.12;100.00;95913.94;4949174;28;20042;-63
2020/12/11 00:32:31;;;;;;;9.80;6.45;;;;;;;8.85;100.00;95875.97;4949469;28;20040;-62
2020/12/11 00:34:56;;;;;;;9.20;6.40;;;;;;;9.31;100.00;95945.97;4947487;28;20497;-62
2020/12/11 00:37:22;;;;;;;8.55;6.43;;;;;;;8.85;100.00;95865.69;4948844;28;20433;-62
2020/12/11 00:39:47;;;;;;;10.05;5.95;;;;;;;9.30;100.00;95933.38;4947585;28;20182;-63
2020/12/11 00:42:18;;;;;;;8.80;5.55;;;;;;;9.44;100.00;95938.16;4979642;28;20690;-62
2020/12/11 00:44:44;;;;;;;9.27;6.03;;;;;;;9.42;100.00;95932.22;4979698;28;20027;-62
2020/12/11 00:47:09;;;;;;;10.90;5.22;;;;;;;9.38;100.00;95936.94;4948317;28;20043;-62
2020/12/11 00:49:35;;;;;;;11.50;5.22;;;;;;;9.19;100.00;95922.28;4948900;28;20031;-62
2020/12/11 00:52:00;;;;;;;6.95;5.45;;;;;;;9.35;100.00;95937.72;4946845;28;20493;-61
2020/12/11 00:54:25;;;;;;;10.45;6.57;;;;;;;9.36;100.00;95937.31;4979389;28;20038;-62
2020/12/11 00:56:51;;;;;;;7.38;5.68;;;;;;;9.31;100.00;95937.69;4962973;28;20090;-62
2020/12/11 00:59:16;;;;;;;8.50;6.22;;;;;;;9.26;100.00;95935.34;4948520;28;20039;-61
2020/12/11 01:01:42;;;;;;;10.80;6.78;;;;;;;9.32;100.00;95931.00;4962689;28;20051;-62
2020/12/11 01:04:08;;;;;;;8.52;6.93;;;;;;;8.86;100.00;95883.88;4948320;28;20058;-62
2020/12/11 01:06:33;;;;;;;12.07;7.75;;;;;;;9.36;100.00;95934.56;4946621;28;20172;-63
2020/12/11 01:08:59;;;;;;;11.27;7.70;;;;;;;9.23;100.00;95922.31;4947983;28;20042;-63
2020/12/11 01:11:24;;;;;;;12.50;8.30;;;;;;;9.21;100.00;95927.41;4948362;28;20043;-61
2020/12/11 01:13:50;;;;;;;15.27;8.88;;;;;;;8.90;100.00;95887.41;4965947;28;20494;-61
2020/12/11 01:16:16;;;;;;;12.07;8.45;;;;;;;9.35;100.00;95924.69;4967132;28;20481;-61
2020/12/11 01:18:41;;;;;;;12.65;8.35;;;;;;;9.39;100.00;95933.78;4967004;28;20030;-61
2020/12/11 01:21:06;;;;;;;11.98;9.20;;;;;;;8.49;100.00;95813.47;4967001;28;20059;-61
2020/12/11 01:23:32;;;;;;;16.48;8.77;;;;;;;9.35;100.00;95921.94;4981518;28;20054;-62
2020/12/11 01:25:57;;;;;;;13.65;9.23;;;;;;;9.27;100.00;95925.84;4967161;28;20042;-61
2020/12/11 01:28:23;;;;;;;10.60;9.15;;;;;;;9.28;100.00;95932.94;4967057;28;20033;-62
2020/12/11 01:30:48;;;;;;;12.30;8.85;;;;;;;9.25;100.00;95919.91;4965232;28;20469;-61
2020/12/11 01:33:13;;;;;;;15.75;9.73;;;;;;;9.33;100.00;95923.50;4966823;28;20487;-62
2020/12/11 01:35:39;;;;;;;14.05;9.95;;;;;;;9.33;100.00;95918.75;4965749;28;20030;-61
2020/12/11 01:38:04;;;;;;;14.43;10.80;;;;;;;8.92;100.00;95881.50;4981606;28;20073;-61
2020/12/11 01:40:34;;;;;;;14.35;9.27;;;;;;;9.25;100.00;95919.91;4967049;28;20034;-61
2020/12/11 01:43:00;;;;;;;13.40;9.88;;;;;;;9.30;100.00;95925.06;4981406;28;20051;-61
2020/12/11 01:45:25;;;;;;;11.63;9.13;;;;;;;8.57;100.00;95804.03;4965300;28;20038;-62
2020/12/11 01:47:51;;;;;;;13.57;9.55;;;;;;;9.21;100.00;95913.59;4997999;28;20038;-62
2020/12/11 01:50:19;;;;;;;12.02;9.10;;;;;;;9.21;100.00;95906.09;4997667;28;20417;-61
2020/12/11 01:52:46;;;;;;;10.13;8.70;;;;;;;9.26;100.00;95907.72;4967031;28;20489;-61
2020/12/11 01:55:12;;;;;;;15.27;10.20;;;;;;;9.38;100.00;95915.63;4966571;28;20241;-62
2020/12/11 01:57:52;;;;;;;11.80;8.80;;;;;;;9.19;100.00;95896.63;4965343;28;20468;-63
2020/12/11 02:00:20;;;;;;;13.07;8.77;;;;;;;8.86;100.00;95856.25;4966771;28;20070;-62
2020/12/11 02:02:47;;;;;;;12.18;8.75;;;;;;;9.36;100.00;95915.22;4966603;28;20039;-62
2020/12/11 02:05:12;;;;;;;11.27;9.05;;;;;;;9.25;100.00;95916.38;4965266;28;20046;-61
2020/12/11 02:07:38;;;;;;;11.45;8.85;;;;;;;9.31;100.00;95921.13;4966150;28;20074;-62
2020/12/11 02:10:05;;;;;;;10.48;9.00;;;;;;;9.05;100.00;95896.56;4965048;28;20035;-61
2020/12/11 02:12:31;;;;;;;15.63;8.82;;;;;;;9.31;100.00;95921.13;4966335;28;20058;-61
2020/12/11 02:14:57;;;;;;;13.95;8.43;;;;;;;9.21;100.00;95917.13;4966469;28;20065;-62
2020/12/11 02:17:26;;;;;;;12.20;8.10;;;;;;;9.20;100.00;95914.75;4964577;28;20039;-62
2020/12/11 02:19:55;;;;;;;11.85;8.93;;;;;;;9.15;100.00;95923.44;4966598;28;20031;-61
2020/12/11 02:22:21;;;;;;;10.90;8.43;;;;;;;9.02;100.00;95913.91;4965777;28;20051;-61
2020/12/11 02:24:46;;;;;;;11.23;7.75;;;;;;;8.79;100.00;95888.53;4966227;28;20089;-61
2020/12/11 02:27:12;;;;;;;13.57;9.05;;;;;;;9.01;100.00;95923.34;4965938;28;20049;-62
2020/12/11 02:29:37;;;;;;;14.57;9.38;;;;;;;8.86;100.00;95907.91;4965976;28;20062;-60
2020/12/11 02:32:03;;;;;;;14.50;8.77;;;;;;;8.88;100.00;95952.50;4979821;28;20049;-61
2020/12/11 02:34:28;;;;;;;14.35;9.30;;;;;;;8.69;100.00;95933.47;4964333;28;20049;-61
2020/12/11 02:37:00;;;;;;;16.75;10.68;;;;;;;8.32;100.00;95839.00;4965476;28;20039;-61
2020/12/11 02:39:26;;;;;;;16.20;11.65;;;;;;;8.81;100.00;95924.84;4964649;28;20527;-61
2020/12/11 02:41:52;;;;;;;13.85;10.85;;;;;;;8.81;100.00;95941.41;4965893;28;20042;-61
2020/12/11 02:44:17;;;;;;;18.10;12.50;;;;;;;8.83;100.00;95922.50;4964718;28;20038;-61
2020/12/11 02:46:43;;;;;;;16.50;11.82;;;;;;;8.32;100.00;95863.81;4966097;28;20043;-61
2020/12/11 02:49:08;;;;;;;20.08;12.20;;;;;;;8.62;100.00;95939.72;4964310;28;20034;-61
2020/12/11 02:51:34;;;;;;;16.10;11.52;;;;;;;8.82;100.00;95932.72;4965813;28;20047;-62
2020/12/11 02:53:59;;;;;;;15.98;9.70;;;;;;;8.63;100.00;95890.84;4980658;28;20434;-61
2020/12/11 02:56:24;;;;;;;15.48;9.60;;;;;;;9.05;100.00;95946.28;4980495;28;20039;-61
2020/12/11 02:58:50;;;;;;;12.70;8.40;;;;;;;8.52;100.00;95862.38;4966172;28;20038;-61
2020/12/11 03:01:16;;;;;;;12.98;9.65;;;;;;;8.66;100.00;95896.34;4965931;28;20039;-62
2020/12/11 03:03:42;;;;;;;12.80;8.70;;;;;;;8.92;100.00;95936.72;4980966;28;20042;-61
2020/12/11 03:06:08;;;;;;;15.13;9.55;;;;;;;8.06;100.00;95808.88;4965780;28;20101;-61
2020/12/11 03:08:34;;;;;;;12.90;8.75;;;;;;;8.75;100.00;95904.31;4965567;28;20035;-61
2020/12/11 03:11:00;;;;;;;14.57;10.90;;;;;;;8.11;100.00;95844.38;4965823;28;20558;-61
2020/12/11 03:13:26;;;;;;;9.65;6.82;;;;;;;8.67;100.00;95924.75;4965501;28;20126;-62
2020/12/11 03:15:51;;;;;;;8.63;6.53;;;;;;;8.65;100.00;95944.47;4980124;28;20027;-61
2020/12/11 03:18:16;;;;;;;7.78;6.20;;;;;;;8.77;100.00;95949.66;4963773;28;20038;-62
2020/12/11 03:20:42;;;;;;;4.68;3.42;;;;;;;8.20;100.00;95955.13;4979969;28;20058;-61
2020/12/11 03:23:07;;;;;;;3.25;2.30;;;;;;;7.45;100.00;95876.47;4965401;28;20289;-61
2020/12/11 03:25:33;;;;;;;1.92;1.48;;;;;;;7.96;100.00;95950.19;4963738;28;20390;-61
2020/12/11 03:27:58;;;;;;;2.85;1.10;;;;;;;7.71;100.00;95956.25;4965575;28;20031;-61
2020/12/11 03:30:24;;;;;;;2.67;1.17;;;;;;;7.53;100.00;95904.88;4980496;28;20034;-62
2020/12/11 03:32:50;;;;;;;2.60;0.90;;;;;;;7.91;100.00;95961.56;4996293;28;20043;-61
2020/12/11 03:35:15;;;;;;;1.63;1.10;;;;;;;7.92;100.00;95961.16;4965407;28;20070;-61
2020/12/11 03:37:40;;;;;;;248.15;72.45;;;;;;;7.79;100.00;95964.59;4980139;28;20053;-60
2020/12/11 03:40:06;;;;;;;29.63;8.95;;;;;;;7.79;100.00;95959.09;4965555;28;20678;-61
2020/12/11 03:42:32;;;;;;;15.63;5.30;;;;;;;7.85;100.00;95963.06;4965366;28;20041;-61
2020/12/11 03:44:58;;;;;;;0.88;0.88;;;;;;;7.80;100.00;95963.41;4969075;28;20038;-60
2020/12/11 03:47:24;;;;;;;0.77;0.77;;;;;;;7.87;100.00;95969.00;5000071;28;20493;-61
2020/12/11 03:49:49;;;;;;;3.03;1.05;;;;;;;7.44;100.00;95909.91;4967478;28;20030;-60
2020/12/11 03:52:15;;;;;;;2.30;1.40;;;;;;;7.53;100.00;95915.91;4983421;28;20483;-61
2020/12/11 03:54:40;;;;;;;1.08;1.00;;;;;;;7.91;100.00;95978.09;4968939;28;20053;-60
2020/12/11 03:57:05;;;;;;;3.60;2.67;;;;;;;7.60;100.00;95914.00;4968604;28;20043;-60
2020/12/11 03:59:31;;;;;;;9.90;8.48;;;;;;;8.04;100.00;95973.91;4969158;28;20522;-62
2020/12/11 04:01:56;;;;;;;7.93;4.55;;;;;;;7.58;100.00;95902.59;4968534;28;20050;-60
2020/12/11 04:04:22;;;;;;;17.95;5.20;;;;;;;8.08;100.00;95974.75;4983596;28;20038;-61
2020/12/11 04:06:47;;;;;;;5.82;3.58;;;;;;;7.61;100.00;95923.88;4999610;28;20089;-61
2020/12/11 04:09:13;;;;;;;4.82;1.88;;;;;;;7.82;100.00;95950.06;4968816;28;20050;-60
2020/12/11 04:11:38;;;;;;;1.83;1.50;;;;;;;8.12;100.00;95997.63;4967197;28;20045;-61
2020/12/11 04:14:04;;;;;;;2.30;2.10;;;;;;;8.17;100.00;95994.50;4967323;28;20039;-60
2020/12/11 04:16:30;;;;;;;2.00;1.30;;;;;;;8.10;100.00;96010.97;4968362;28;20489;-61
2020/12/11 04:18:56;;;;;;;19.98;9.07;;;;;;;7.26;100.00;95857.41;4983192;28;20105;-61
2020/12/11 04:21:21;;;;;;;5.10;1.90;;;;;;;7.42;100.00;95881.94;4982820;28;20196;-61
2020/12/11 04:23:47;;;;;;;9.73;4.15;;;;;;;7.87;100.00;95946.97;4968967;28;20114;-61
2020/12/11 04:26:12;;;;;;;13.27;6.57;;;;;;;8.24;100.00;96016.66;4982740;28;20038;-61
2020/12/11 04:28:38;;;;;;;11.88;8.15;;;;;;;8.16;100.00;95999.22;4983088;28;20036;-61
2020/12/11 04:31:04;;;;;;;8.13;5.03;;;;;;;8.26;100.00;96017.88;4968283;28;20043;-62
2020/12/11 04:33:29;;;;;;;12.18;6.40;;;;;;;8.12;100.00;96025.19;4968070;28;20027;-61
2020/12/11 04:35:55;;;;;;;14.45;7.35;;;;;;;8.05;100.00;96019.59;4982641;28;20043;-61
2020/12/11 04:38:20;;;;;;;18.38;10.18;;;;;;;7.91;100.00;95980.84;4982565;28;20427;-61
2020/12/11 04:40:46;;;;;;;29.83;14.80;;;;;;;7.71;100.00;95961.75;4967958;28;20497;-61
2020/12/11 04:43:12;;;;;;;30.88;15.32;;;;;;;8.11;100.00;96029.13;4968277;28;20027;-61
2020/12/11 04:45:39;;;;;;;33.35;19.27;;;;;;;8.18;100.00;96034.69;4966566;28;20084;-62
2020/12/11 04:48:09;;;;;;;36.70;18.65;;;;;;;8.19;100.00;96039.84;4967736;28;20030;-61
2020/12/11 04:50:35;;;;;;;28.65;16.10;;;;;;;8.07;100.00;96022.78;4965952;28;20101;-60
2020/12/11 04:53:03;;;;;;;25.92;15.27;;;;;;;7.71;100.00;95972.78;4967957;28;20522;-60
2020/12/11 04:55:33;;;;;;;24.42;15.90;;;;;;;8.21;100.00;96045.78;4967128;28;20117;-61
2020/12/11 04:58:04;;;;;;;21.27;12.63;;;;;;;8.29;100.00;96052.19;4982500;28;20568;-60
2020/12/11 05:00:30;;;;;;;22.40;13.18;;;;;;;7.85;100.00;95993.41;4963097;28;20038;-60
2020/12/11 05:03:00;;;;;;;18.42;13.02;;;;;;;8.26;100.00;96059.25;4979116;28;20043;-60
2020/12/11 05:05:25;;;;;;;19.27;12.13;;;;;;;8.19;100.00;96037.09;4947115;29;20081;-61
2020/12/11 05:07:51;;;;;;;16.23;10.45;;;;;;;8.38;100.00;96052.66;4948395;28;20072;-62
2020/12/11 05:10:16;;;;;;;15.70;10.40;;;;;;;8.33;100.00;96058.53;4948051;28;20466;-61
2020/12/11 05:12:41;;;;;;;21.48;14.50;;;;;;;8.21;100.00;96056.00;4954337;28;20046;-62
2020/12/11 05:15:11;;;;;;;19.80;14.55;;;;;;;8.00;100.00;96006.19;4982125;28;20130;-62
2020/12/11 05:17:42;;;;;;;15.80;11.38;;;;;;;8.41;100.00;96054.69;4982211;28;20552;-61
2020/12/11 05:20:10;;;;;;;15.23;10.45;;;;;;;8.35;100.00;96045.13;4965680;28;20453;-61
2020/12/11 05:22:37;;;;;;;13.57;9.43;;;;;;;8.34;100.00;96060.13;4981628;28;20501;-60
2020/12/11 05:25:07;;;;;;;16.05;10.18;;;;;;;8.06;100.00;96032.22;4967108;28;20125;-61
2020/12/11 05:27:40;;;;;;;18.60;11.40;;;;;;;8.15;100.00;96057.53;4981801;28;20049;-61
2020/12/11 05:30:12;;;;;;;29.00;16.42;;;;;;;8.12;100.00;96063.81;4967177;28;20515;-61
2020/12/11 05:32:40;;;;;;;47.83;25.98;;;;;;;8.12;100.00;96063.81;4967448;28;20034;-61
2020/12/11 05:35:14;;;;;;;60.83;36.22;;;;;;;8.04;100.00;96062.13;4966922;28;20090;-61
2020/12/11 05:38:04;;;;;;;49.40;27.20;;;;;;;7.93;100.00;96069.50;4981255;28;20054;-62
2020/12/11 05:40:41;;;;;;;36.92;21.15;;;;;;;8.06;100.00;96065.31;4967022;28;20504;-61
2020/12/11 05:43:11;;;;;;;12.93;9.77;;;;;;;7.67;100.00;96071.19;4965250;28;20035;-62
2020/12/11 05:45:48;;;;;;;6.97;5.82;;;;;;;7.63;100.00;96067.56;4966660;28;20035;-62
2020/12/11 05:48:14;;;;;;;9.45;6.55;;;;;;;7.76;100.00;96070.09;4966698;28;20102;-61
2020/12/11 05:50:39;;;;;;;10.23;4.15;;;;;;;7.08;100.00;95947.25;4981601;28;20125;-62
2020/12/11 05:53:05;;;;;;;6.45;4.75;;;;;;;7.96;100.00;96072.31;4966562;28;20543;-61
2020/12/11 05:55:30;;;;;;;3.15;1.92;;;;;;;7.63;100.00;96020.72;4965155;28;20549;-62
2020/12/11 05:57:58;;;;;;;7.97;2.72;;;;;;;8.04;100.00;96095.22;4997689;28;20034;-62
2020/12/11 06:00:24;;;;;;;4.78;3.28;;;;;;;8.11;100.00;96089.81;4965298;28;20058;-61
2020/12/11 06:02:54;;;;;;;37.38;16.88;;;;;;;7.95;100.00;96076.22;4967139;28;20035;-62
2020/12/11 06:05:24;;;;;;;75.80;33.80;;;;;;;8.07;100.00;96094.47;4967183;28;20035;-62
2020/12/11 06:07:51;;;;;;;48.78;25.30;;;;;;;7.79;100.00;96050.03;4967163;28;20066;-62
2020/12/11 06:10:21;;;;;;;39.50;21.52;;;;;;;8.04;100.00;96103.50;4967019;28;20052;-62
2020/12/11 06:12:48;;;;;;;44.30;27.48;;;;;;;7.91;100.00;96058.03;4981368;28;20042;-61
2020/12/11 06:15:22;;;;;;;47.10;29.88;;;;;;;8.22;100.00;96118.28;4966382;28;20066;-62
2020/12/11 06:17:49;;;;;;;46.80;24.20;;;;;;;7.52;100.00;96030.06;4966812;28;20074;-62
2020/12/11 06:20:16;;;;;;;37.63;20.35;;;;;;;8.13;100.00;96131.56;4965916;28;20034;-62
2020/12/11 06:22:44;;;;;;;57.25;29.95;;;;;;;8.18;100.00;96139.50;4981061;28;20059;-61
2020/12/11 06:25:27;;;;;;;101.10;59.05;;;;;;;7.99;100.00;96117.63;4964421;28;20509;-63
2020/12/11 06:27:54;;;;;;;159.13;92.00;;;;;;;8.10;100.00;96137.84;4966726;28;20477;-62
2020/12/11 06:30:37;;;;;;;189.80;106.53;;;;;;;8.10;100.00;96157.16;4964705;28;20089;-62
2020/12/11 06:33:03;;;;;;;122.97;60.25;;;;;;;7.98;100.00;96124.31;4965901;28;20054;-62
2020/12/11 06:35:28;;;;;;;60.78;33.90;;;;;;;8.00;100.00;96135.78;4965711;28;20031;-62
2020/12/11 06:37:54;;;;;;;40.63;24.65;;;;;;;8.06;100.00;96142.53;4964332;28;20057;-61
2020/12/11 06:40:48;;;;;;;38.55;24.10;;;;;;;8.16;100.00;96153.69;4964204;28;20038;-61
2020/12/11 06:43:39;;;;;;;23.02;15.27;;;;;;;8.18;100.00;96148.59;4962456;28;20434;-60
2020/12/11 06:46:10;;;;;;;33.45;21.27;;;;;;;8.26;100.00;96157.75;4969129;28;20042;-63
2020/12/11 06:48:36;;;;;;;42.80;27.67;;;;;;;8.30;100.00;96158.63;4965641;28;20039;-61
2020/12/11 06:51:04;;;;;;;55.10;38.03;;;;;;;8.43;100.00;96151.66;4965909;28;20069;-62
2020/12/11 06:53:39;;;;;;;49.25;32.03;;;;;;;8.56;100.00;96145.50;4965277;28;20472;-63
2020/12/11 06:56:05;;;;;;;38.63;25.25;;;;;;;8.61;100.00;96166.44;4966024;28;20046;-62
2020/12/11 06:58:30;;;;;;;49.60;34.70;;;;;;;8.70;100.00;96153.09;4965223;28;20046;-63
2020/12/11 07:00:57;;;;;;;53.22;38.70;;;;;;;8.74;100.00;96162.25;4966015;28;20035;-65
2020/12/11 07:03:29;;;;;;;54.00;38.33;;;;;;;8.86;100.00;96164.72;4971408;28;20112;-66
2020/12/11 07:06:03;;;;;;;45.45;29.67;;;;;;;8.19;100.00;96047.34;4985215;28;20046;-63
2020/12/11 07:08:28;;;;;;;60.13;30.48;;;;;;;9.15;100.00;96166.56;4964856;28;20153;-61
2020/12/11 07:10:54;;;;;;;80.72;51.53;;;;;;;9.06;100.00;96142.00;4946609;28;20525;-61
2020/12/11 07:13:20;;;;;;;33.97;21.48;;;;;;;8.97;100.00;96176.63;4946522;28;20082;-63
2020/12/11 07:15:55;;;;;;;36.70;22.30;;;;;;;9.12;100.00;96173.63;4946173;28;20484;-62
2020/12/11 07:18:20;;;;;;;35.83;21.17;;;;;;;9.19;100.00;96156.31;4980539;28;20043;-61
2020/12/11 07:20:57;;;;;;;19.17;10.90;;;;;;;9.32;100.00;96171.41;4949864;28;20050;-64
2020/12/11 07:23:24;;;;;;;23.40;13.82;;;;;;;9.49;100.00;96176.28;4949732;28;20031;-62
2020/12/11 07:25:51;;;;;;;41.70;23.67;;;;;;;9.68;100.00;96164.94;4952612;28;20054;-64
2020/12/11 07:28:17;;;;;;;63.33;35.88;;;;;;;9.75;99.74;96140.13;4982107;28;20101;-62
2020/12/11 07:30:47;;;;;;;47.50;23.77;;;;;;;9.98;97.73;96161.94;4971058;28;21585;-63
2020/12/11 07:33:13;;;;;;;52.33;26.67;;;;;;;10.06;99.74;96161.59;4967190;28;20038;-62
2020/12/11 07:35:49;;;;;;;48.85;25.42;;;;;;;10.24;98.51;96168.03;4968931;28;20399;-61
2020/12/11 07:38:25;;;;;;;45.72;22.98;;;;;;;9.99;98.64;96131.13;4967395;28;20043;-61
2020/12/11 07:40:55;;;;;;;24.75;14.82;;;;;;;10.51;94.67;96166.53;4969026;28;20034;-60
2020/12/11 07:43:21;;;;;;;25.90;14.90;;;;;;;10.37;93.99;96162.94;4968499;28;20038;-60
2020/12/11 07:45:47;;;;;;;17.92;11.48;;;;;;;9.94;95.93;96120.44;4968799;28;20406;-62
2020/12/11 07:48:13;;;;;;;12.85;8.40;;;;;;;10.44;95.97;96172.06;4969204;28;20046;-63
2020/12/11 07:50:38;;;;;;;11.43;6.88;;;;;;;10.40;93.84;96138.03;4969055;28;20058;-61
2020/12/11 07:53:09;;;;;;;11.05;7.18;;;;;;;10.82;93.77;96178.09;4956638;28;20041;-63
2020/12/11 07:55:34;;;;;;;8.80;5.40;;;;;;;10.57;93.23;96170.50;4965593;28;20031;-60
2020/12/11 07:58:01;;;;;;;3.72;2.75;;;;;;;10.04;100.00;96174.22;4969017;28;20038;-61
2020/12/11 08:00:27;;;;;;;3.10;2.22;;;;;;;10.39;97.43;96175.22;4970552;28;20068;-62
2020/12/11 08:03:08;;;;;;;2.38;1.52;;;;;;;10.07;93.21;96094.03;4968688;28;20039;-61
2020/12/11 08:05:35;;;;;;;2.00;1.50;;;;;;;10.42;92.08;96174.44;4964694;28;20043;-65
2020/12/11 08:08:01;;;;;;;3.53;2.22;;;;;;;10.39;93.05;96175.22;4968401;28;20037;-61
2020/12/11 08:10:40;;;;;;;4.65;2.75;;;;;;;10.22;94.78;96139.97;4968309;28;20035;-63
2020/12/11 08:13:16;;;;;;;1.83;1.73;;;;;;;10.65;90.69;96174.88;4968659;28;20069;-62
2020/12/11 08:15:44;;;;;;;2.20;1.67;;;;;;;10.77;88.27;96173.72;4968348;28;20114;-62
2020/12/11 08:18:11;;;;;;;2.15;1.60;;;;;;;10.80;89.58;96180.44;4967486;28;20054;-61
2020/12/11 08:20:51;;;;;;;2.60;1.80;;;;;;;10.40;92.70;96171.25;4967278;28;20051;-63
2020/12/11 08:23:39;;;;;;;6.22;2.80;;;;;;;10.57;96.44;96176.03;4968164;28;20027;-62
2020/12/11 08:26:05;;;;;;;2.70;2.38;;;;;;;10.79;92.65;96189.97;4967371;28;20034;-60
2020/12/11 08:28:31;;;;;;;8.52;6.57;;;;;;;11.14;93.33;96178.94;4966771;28;20125;-61
2020/12/11 08:30:56;;;;;;;11.27;8.35;;;;;;;11.02;94.58;96130.22;4965109;28;20990;-63
2020/12/11 08:33:24;;;;;;;6.82;4.97;;;;;;;10.96;91.84;96126.28;4948518;28;20082;-66
2020/12/11 08:35:50;;;;;;;3.55;2.92;;;;;;;10.41;94.72;96167.31;4960801;28;20263;-60
2020/12/11 08:38:16;;;;;;;3.17;2.05;;;;;;;9.74;98.85;96182.75;4967629;28;20433;-60
2020/12/11 08:40:46;;;;;;;2.25;2.00;;;;;;;10.31;97.41;96179.13;4967872;28;20037;-64
2020/12/11 08:48:27;;;;;;;4.18;3.10;;;;;;;11.20;90.83;96174.59;4967638;28;20042;-65
2020/12/11 08:51:00;;;;;;;3.03;2.72;;;;;;;11.41;91.28;96167.03;4967322;28;20042;-61
2020/12/11 08:53:28;;;;;;;3.20;2.63;;;;;;;11.65;88.22;96173.81;4967380;28;20043;-62
2020/12/11 08:55:53;;;;;;;2.70;2.50;;;;;;;11.53;86.67;96171.41;4967160;28;20323;-62
2020/12/11 08:58:18;;;;;;;3.42;1.90;;;;;;;11.63;85.07;96171.41;4967467;28;20031;-60
2020/12/11 09:00:44;;;;;;;5.45;3.05;;;;;;;11.65;84.68;96173.81;4967877;28;20038;-67
2020/12/11 09:03:09;;;;;;;2.97;2.50;;;;;;;11.80;84.27;96176.16;4967051;28;20545;-62
2020/12/11 09:05:35;;;;;;;3.75;2.95;;;;;;;11.79;84.62;96163.47;4967452;28;20030;-62
2020/12/11 09:08:00;;;;;;;5.05;3.42;;;;;;;12.00;86.68;96162.63;4964260;28;20606;-60
2020/12/11 09:10:26;;;;;;;3.22;2.63;;;;;;;12.13;85.22;96155.47;4947999;28;20034;-61
2020/12/11 09:12:53;;;;;;;3.92;3.38;;;;;;;12.32;83.06;96151.41;4962153;28;20042;-63
2020/12/11 09:15:20;;;;;;;4.60;3.05;;;;;;;12.24;82.71;96128.44;4967260;28;20034;-63
2020/12/11 10:28:07;;;;;;;19.25;10.45;;;;;;;17.14;53.33;96101.78;5024144;28;20402;-63
2020/12/11 10:30:33;;;;;;;7.45;4.03;;;;;;;16.16;52.56;96099.91;4988083;28;20057;-66
2020/12/11 10:32:58;;;;;;;3.72;2.03;;;;;;;15.28;57.08;96066.41;4984348;28;20054;-63
2020/12/11 10:35:24;;;;;;;1.88;1.55;;;;;;;14.40;58.64;96070.56;4981847;28;20050;-65
2020/12/11 10:37:49;;;;;;;1.92;1.45;;;;;;;14.37;57.95;96085.34;4982773;28;20103;-62
2020/12/11 10:40:14;;;;;;;1.50;1.40;;;;;;;13.73;59.03;95998.19;4978830;28;20065;-63
2020/12/11 10:42:40;;;;;;;1.45;1.35;;;;;;;14.15;60.15;96095.09;4982041;28;20092;-63
2020/12/11 10:45:05;;;;;;;1.35;1.25;;;;;;;12.05;60.90;96070.63;4993492;28;20230;-63
2020/12/11 10:47:31;;;;;;;1.20;1.10;;;;;;;13.51;64.01;96095.81;4970781;28;20047;-63
2020/12/11 10:49:56;;;;;;;1.73;1.10;;;;;;;13.16;63.50;96098.13;4976304;28;20676;-62
2020/12/11 10:52:21;;;;;;;1.38;1.25;;;;;;;13.42;65.57;96087.16;4982138;28;20053;-62
2020/12/11 10:54:53;;;;;;;1.90;1.55;;;;;;;13.07;63.79;95992.94;4982384;28;20084;-64
2020/12/11 10:57:18;;;;;;;2.17;1.13;;;;;;;13.79;63.85;96088.38;4981307;28;20485;-61
2020/12/11 10:59:44;;;;;;;1.95;1.38;;;;;;;13.33;63.75;96055.47;4979904;28;20049;-63
2020/12/11 11:02:09;;;;;;;1.88;1.67;;;;;;;13.23;63.92;96018.19;4982632;28;20147;-64
2020/12/11 11:04:35;;;;;;;2.13;1.30;;;;;;;13.76;62.98;96089.19;4982269;28;20049;-64
2020/12/11 11:07:02;;;;;;;3.03;1.35;;;;;;;13.66;61.68;96085.31;4978238;28;20046;-62
2020/12/11 11:27:40;;;;;;;;;;;;;;;13.60;63.86;96065.53;4969144;28;20684;-62
2020/12/11 11:30:06;;;;;;;1.42;1.13;;;;;;;13.68;65.75;96078.16;4979444;28;20316;-62
2020/12/11 11:32:31;;;;;;;4.63;2.58;;;;;;;13.04;64.72;95954.84;4980871;28;20048;-64
2020/12/11 11:34:56;;;;;;;5.90;4.68;;;;;;;13.84;66.17;96068.44;4982983;28;20046;-62
2020/12/11 11:37:22;;;;;;;6.80;5.20;;;;;;;14.00;67.90;96065.88;4980735;28;20503;-61
2020/12/11 11:39:49;;;;;;;6.90;4.30;;;;;;;14.12;63.64;96062.53;4969667;28;20532;-62
2020/12/11 11:42:14;;;;;;;5.20;2.50;;;;;;;14.16;63.24;96063.28;4959675;28;20217;-63
2020/12/11 11:47:14;;;;;;;3.10;2.40;;;;;;;14.10;60.93;96064.97;4966999;28;20477;-62
2020/12/11 11:54:43;;;;;;;3.90;1.95;;;;;;;13.80;61.94;96006.47;4969132;28;20058;-64
2020/12/11 11:57:08;;;;;;;4.75;2.25;;;;;;;13.92;59.31;96064.38;4967604;28;20046;-64
2020/12/11 11:59:34;;;;;;;4.82;3.25;;;;;;;14.20;60.73;96052.88;4969023;28;20052;-64
2020/12/11 12:01:59;;;;;;;7.45;4.15;;;;;;;13.94;61.80;96067.53;4966611;28;20487;-64
2020/12/11 12:04:25;;;;;;;5.00;2.80;;;;;;;13.87;61.77;96053.69;4965954;28;20475;-62
2020/12/11 12:06:50;;;;;;;4.10;2.15;;;;;;;13.93;63.34;96077.06;4968708;28;20109;-64
2020/12/11 12:09:17;;;;;;;5.50;2.60;;;;;;;12.71;64.45;95869.41;4968230;28;20070;-65
2020/12/11 12:11:44;;;;;;;2.67;1.60;;;;;;;13.87;62.51;96056.47;4968727;28;20048;-64
2020/12/11 12:14:09;;;;;;;4.80;3.28;;;;;;;13.62;63.76;95996.31;4967693;28;20563;-64
2020/12/11 12:16:36;;;;;;;6.15;2.85;;;;;;;13.98;63.77;96068.28;4967486;28;20957;-65
2020/12/11 12:19:02;;;;;;;4.78;2.85;;;;;;;14.04;60.46;96058.25;4968227;28;20070;-65
2020/12/11 12:21:38;;;;;;;4.45;2.88;;;;;;;12.93;60.97;95892.97;4965737;28;20192;-64
2020/12/11 12:29:36;;;;;;;6.15;3.70;;;;;;;13.58;61.35;96001.13;4950622;28;20118;-64
2020/12/11 12:32:10;;;;;;;4.25;3.20;;;;;;;13.83;60.88;96061.31;4966380;28;20043;-64
2020/12/11 12:44:54;;;;;;;7.30;3.45;;;;;;;13.54;63.90;96028.22;4953730;28;20057;-67
2020/12/11 12:47:20;;;;;;;2.90;1.95;;;;;;;13.46;64.56;96043.41;4968424;28;20512;-62
2020/12/11 12:49:45;;;;;;;2.85;1.83;;;;;;;13.04;64.39;96004.09;4968510;28;20062;-63
2020/12/11 12:52:10;;;;;;;3.10;1.65;;;;;;;13.03;66.61;96038.66;4965670;28;20045;-62
2020/12/11 12:54:37;;;;;;;4.55;1.90;;;;;;;13.06;67.25;96030.28;4966384;28;20042;-63
2020/12/11 12:57:13;;;;;;;2.78;2.22;;;;;;;13.07;65.94;96053.31;4982469;28;20158;-63
2020/12/11 13:04:52;;;;;;;4.38;2.95;;;;;;;13.30;65.48;96040.41;4968006;28;20081;-63
2020/12/11 13:07:17;;;;;;;5.18;2.05;;;;;;;13.50;65.55;96046.94;4952665;28;20475;-63
2020/12/11 13:09:43;;;;;;;2.97;1.90;;;;;;;12.55;59.86;95916.38;4964255;28;20054;-66
2020/12/11 13:12:08;;;;;;;2.83;2.00;;;;;;;13.69;60.49;96057.47;4966250;28;20046;-62
2020/12/11 13:14:34;;;;;;;1.92;1.27;;;;;;;12.43;63.73;95903.00;4972500;28;20077;-65
2020/12/11 13:17:02;;;;;;;1.70;1.40;;;;;;;13.42;63.22;96042.66;4985073;28;20649;-65
2020/12/11 13:19:29;;;;;;;2.70;1.92;;;;;;;13.35;64.18;96014.91;4983123;28;20033;-61
2020/12/11 13:27:27;;;;;;;2.60;1.13;;;;;;;12.83;65.91;96005.06;4985039;28;19984;-64
2020/12/11 13:29:54;;;;;;;21.75;12.57;;;;;;;12.73;67.68;95989.25;4984440;28;20109;-62
2020/12/11 13:32:20;;;;;;;47.58;23.65;;;;;;;13.02;68.83;96062.09;4986305;28;20038;-63
2020/12/11 13:34:46;;;;;;;21.33;10.90;;;;;;;12.60;68.74;96013.16;4984730;28;20576;-62